Finnhawk — OJNL — position and weather

sailwx.info

Track history (hours):
 
Tides and Currents Weather Stations Pressure Air Temp Water Temp Dewpoint Dewpoint Depression Visibility Wind Speed Wind Dir Waves Ship Positions

Finnhawk

Last reported at 2017-May-26 02:56 UTC. Time now 2017-May-26 20:45 UTC.
Position N 59°49' E 022°57'.

Length 163 m; draft 6 m.

Type: Ship. MMSI: 230007000.

Date/timePositionNaut miles runAvg speedWind from/ knotsBaromVisibWave heightAir tempDewpointWater temp
2017-May-26 02:56N 59°49' E 022°57'1 1.4
2017-May-26 02:29N 59°49' E 022°57'715.4
2017-May-26 02:01N 59°43' E 023°05'815.7
2017-May-26 01:30N 59°36' E 022°57'1515.5
2017-May-26 00:33N 59°26' E 022°35'116.4
2017-May-26 00:28N 59°25' E 022°33'817.2
2017-May-26 00:00N 59°20' E 022°21'23416.6
2017-May-25 09:56N 56°35' E 017°09'817.7
2017-May-25 09:30N 56°28' E 017°04'917.8
2017-May-25 09:00N 56°20' E 016°58'917.8
2017-May-25 08:30N 56°11' E 016°52'816.8
2017-May-25 08:00N 56°04' E 016°45'917.8
2017-May-25 07:30N 55°60' E 016°31'917.7
2017-May-25 07:00N 55°55' E 016°17'917.6
2017-May-25 06:30N 55°51' E 016°03'917.4
2017-May-25 06:00N 55°47' E 015°50'917.4
2017-May-25 05:30N 55°42' E 015°37'917.3
2017-May-25 05:00N 55°38' E 015°23'917.2
2017-May-25 04:30N 55°33' E 015°10'917.3
2017-May-25 04:00N 55°29' E 014°57'917.3
2017-May-25 03:30N 55°25' E 014°44'917.0
2017-May-25 03:00N 55°19' E 014°33'917.5
2017-May-25 02:30N 55°12' E 014°24'817.1
2017-May-25 02:00N 55°06' E 014°14'816.5
2017-May-25 01:30N 55°00' E 014°03'917.3
2017-May-25 01:01N 54°57' E 013°49'917.4
2017-May-25 00:30N 54°54' E 013°34'917.5
2017-May-25 00:00N 54°52' E 013°20'918.0
2017-May-24 23:30N 54°49' E 013°05'917.9
2017-May-24 23:00N 54°45' E 012°51'917.6
2017-May-24 22:30N 54°42' E 012°37'917.9
2017-May-24 22:00N 54°37' E 012°24'1017.4
2017-May-24 21:26N 54°28' E 012°15'816.7
2017-May-24 20:58N 54°22' E 012°07'1111.9
2017-May-24 20:00N 54°10' E 012°06'2 0.9
2017-May-24 17:29N 54°08' E 012°06'0 0.0
2017-May-24 15:14N 54°08' E 012°06'0 0.0
2017-May-24 14:59N 54°08' E 012°06'0 0.0
2017-May-24 14:26N 54°08' E 012°06'0 0.0
2017-May-24 13:14N 54°08' E 012°06'0 0.0
2017-May-24 12:59N 54°08' E 012°06'0 0.0
2017-May-24 12:14N 54°08' E 012°06'0 0.0
2017-May-24 11:59N 54°08' E 012°06'0 0.0
2017-May-24 09:14N 54°08' E 012°06'0 0.0
2017-May-24 08:59N 54°08' E 012°06'1 0.2
2017-May-24 06:32N 54°09' E 012°06'1 2.7
2017-May-24 06:13N 54°10' E 012°06'3 6.6
2017-May-24 05:46N 54°12' E 012°05'2 7.1
2017-May-24 05:29N 54°14' E 012°02'1 2.8
2017-May-24 05:00N 54°13' E 012°03'7 4.3
2017-May-24 03:18N 54°20' E 012°06'311.7
2017-May-24 03:01N 54°23' E 012°09'4 8.7
2017-May-24 02:31N 54°27' E 012°11'713.8
2017-May-24 02:00N 54°34' E 012°14'4615.4
2017-May-23 23:00N 54°56' E 013°24'815.9
2017-May-23 22:29N 54°59' E 013°37'815.9
2017-May-23 22:00N 55°02' E 013°50'815.8
2017-May-23 21:30N 55°05' E 014°03'815.7
2017-May-23 21:00N 55°11' E 014°11'816.0
2017-May-23 20:30N 55°16' E 014°21'816.4
2017-May-23 20:00N 55°23' E 014°30'816.0
2017-May-23 19:30N 55°28' E 014°40'816.1
2017-May-23 19:00N 55°33' E 014°52'815.8
2017-May-23 18:30N 55°37' E 015°04'816.1
2017-May-23 18:00N 55°41' E 015°16'816.3
2017-May-23 17:30N 55°45' E 015°29'816.2
2017-May-23 17:00N 55°48' E 015°42'816.4
2017-May-23 16:30N 55°53' E 015°54'816.4
2017-May-23 16:00N 55°57' E 016°07'816.2
2017-May-23 15:30N 56°01' E 016°19'816.2
2017-May-23 15:00N 56°05' E 016°32'1615.9
2017-May-23 14:00N 56°17' E 016°50'816.7
2017-May-23 13:30N 56°25' E 016°55'26416.3
2017-May-22 21:17N 59°34' E 022°44'516.8
2017-May-22 21:00N 59°37' E 022°51'816.5
2017-May-22 20:30N 59°42' E 023°04'815.2
2017-May-22 20:00N 59°49' E 022°57'1 0.8
2017-May-22 19:16N 59°49' E 022°57'0 0.0
2017-May-22 18:46N 59°49' E 022°57'0 0.0
2017-May-22 18:28N 59°49' E 022°57'0 0.0
2017-May-22 16:34N 59°49' E 022°57'0 0.0
2017-May-22 16:28N 59°49' E 022°57'0 0.0
2017-May-22 13:52N 59°49' E 022°57'0 0.0
2017-May-22 13:22N 59°49' E 022°57'0 0.0
2017-May-22 12:58N 59°49' E 022°57'0 0.0
2017-May-22 12:28N 59°49' E 022°57'0 0.0
2017-May-22 11:58N 59°49' E 022°57'0 0.0
2017-May-22 11:16N 59°49' E 022°57'0 0.0
2017-May-22 10:52N 59°49' E 022°57'0 0.0
2017-May-22 10:28N 59°49' E 022°57'0 0.0
2017-May-22 09:34N 59°49' E 022°57'0 0.0
2017-May-22 09:28N 59°49' E 022°57'0 0.0
2017-May-22 08:40N 59°49' E 022°57'0 0.0
2017-May-22 07:52N 59°49' E 022°57'0 0.0
2017-May-22 07:28N 59°49' E 022°57'0 0.0
2017-May-22 04:28N 59°49' E 022°57'0 0.0
2017-May-22 03:52N 59°49' E 022°57'0 0.0
2017-May-22 03:22N 59°49' E 022°57'0 0.0
2017-May-22 02:58N 59°49' E 022°57'1 1.1
2017-May-22 02:30N 59°49' E 022°56'815.8
2017-May-22 02:00N 59°42' E 023°05'817.2
2017-May-22 01:30N 59°35' E 022°56'25917.7
2017-May-21 10:54N 56°32' E 017°09'918.7
2017-May-21 10:26N 56°24' E 017°04'818.5
2017-May-21 10:00N 56°17' E 016°58'918.5
2017-May-21 09:30N 56°08' E 016°52'918.0
2017-May-21 09:00N 56°02' E 016°40'918.6
2017-May-21 08:30N 55°57' E 016°26'918.8
2017-May-21 08:00N 55°52' E 016°11'1019.4
2017-May-21 07:30N 55°48' E 015°56'1019.8
2017-May-21 07:00N 55°43' E 015°41'1019.6
2017-May-21 06:30N 55°38' E 015°26'1019.8
2017-May-21 06:00N 55°33' E 015°11'1020.1
2017-May-21 05:30N 55°29' E 014°54'1019.9
2017-May-21 05:00N 55°24' E 014°39'1019.8
2017-May-21 04:30N 55°16' E 014°28'1019.7
2017-May-21 04:00N 55°08' E 014°17'1019.6
2017-May-21 03:30N 55°01' E 014°06'1020.2
2017-May-21 02:59N 54°58' E 013°49'1119.7
2017-May-21 02:26N 54°54' E 013°30'819.8
2017-May-21 02:00N 54°52' E 013°16'1019.8
2017-May-21 01:30N 54°49' E 013°00'1019.2
2017-May-21 01:00N 54°45' E 012°45'43 9.8
2017-May-20 20:36N 54°09' E 012°06'0 0.0
2017-May-20 19:06N 54°09' E 012°06'0 0.0
2017-May-20 17:21N 54°09' E 012°06'0 0.0
2017-May-20 17:00N 54°09' E 012°06'0 0.0
2017-May-20 16:27N 54°09' E 012°06'6 2.1
2017-May-20 13:38N 54°14' E 012°03'313.1
2017-May-20 13:25N 54°17' E 012°01'718.1
2017-May-20 13:00N 54°23' E 012°07'917.0
2017-May-20 12:31N 54°31' E 012°13'5917.7
2017-May-20 09:11N 55°00' E 013°42'318.4
2017-May-20 09:00N 55°02' E 013°47'1018.3
2017-May-20 08:26N 55°05' E 014°04'717.1
2017-May-20 08:00N 55°11' E 014°13'917.3
2017-May-20 07:31N 55°17' E 014°23'917.9
2017-May-20 07:00N 55°24' E 014°34'918.3
2017-May-20 06:30N 55°30' E 014°46'918.5
2017-May-20 06:00N 55°34' E 014°60'918.3
2017-May-20 05:30N 55°39' E 015°14'918.7
2017-May-20 05:00N 55°44' E 015°28'919.0
2017-May-20 04:30N 55°49' E 015°42'918.9
2017-May-20 04:00N 55°53' E 015°57'1019.1
2017-May-20 03:31N 55°58' E 016°11'1019.0
2017-May-20 03:00N 56°03' E 016°27'1019.0
2017-May-20 02:30N 56°08' E 016°41'918.3
2017-May-20 02:00N 56°16' E 016°49'918.9
2017-May-20 01:30N 56°25' E 016°55'1019.1
2017-May-20 01:00N 56°33' E 017°01'26718.7
2017-May-19 10:46N 59°41' E 023°00'417.1
2017-May-19 10:30N 59°45' E 023°02'510.2
2017-May-19 10:00N 59°49' E 022°57'0 0.0
2017-May-19 04:26N 59°49' E 022°57'0 0.0
2017-May-19 03:59N 59°49' E 022°57'0 0.0
2017-May-19 02:39N 59°49' E 022°57'1 1.6
2017-May-19 02:19N 59°49' E 022°56'515.1
2017-May-19 02:01N 59°45' E 023°02'612.7
2017-May-19 01:30N 59°39' E 023°02'714.7
2017-May-19 01:00N 59°32' E 022°55'19016.4
2017-May-18 13:24N 57°38' E 018°02'1016.7
2017-May-18 12:49N 57°30' E 017°52'2216.6
2017-May-18 11:29N 57°10' E 017°35'1216.6
2017-May-18 10:44N 56°58' E 017°27'416.6
2017-May-18 10:30N 56°55' E 017°25'816.7
2017-May-18 10:00N 56°47' E 017°19'816.8
2017-May-18 09:30N 56°39' E 017°14'816.9
2017-May-18 09:01N 56°31' E 017°09'817.0
2017-May-18 08:30N 56°24' E 017°02'816.8
2017-May-18 08:00N 56°16' E 016°57'817.0
2017-May-18 07:30N 56°08' E 016°51'816.5
2017-May-18 07:00N 56°02' E 016°41'816.8
2017-May-18 06:30N 55°58' E 016°28'917.0
2017-May-18 06:00N 55°53' E 016°15'816.8
2017-May-18 05:31N 55°49' E 016°02'816.7
2017-May-18 05:00N 55°45' E 015°49'816.7
2017-May-18 04:31N 55°41' E 015°36'816.6
2017-May-18 04:00N 55°37' E 015°24'816.8
2017-May-18 03:31N 55°33' E 015°10'917.0
2017-May-18 03:01N 55°29' E 014°57'816.6
2017-May-18 02:30N 55°25' E 014°44'816.4
2017-May-18 02:01N 55°20' E 014°33'816.7
2017-May-18 01:30N 55°13' E 014°24'816.8
2017-May-18 01:01N 55°07' E 014°15'816.5
2017-May-18 00:31N 55°01' E 014°05'816.7
2017-May-18 00:00N 54°58' E 013°51'816.6
2017-May-17 23:30N 54°55' E 013°37'816.8
2017-May-17 23:00N 54°53' E 013°24'916.6
2017-May-17 22:29N 54°50' E 013°09'2216.6
2017-May-17 21:11N 54°42' E 012°35'3315.4
2017-May-17 19:02N 54°14' E 012°05'210.8
2017-May-17 18:53N 54°12' E 012°05'3 7.7
2017-May-17 18:30N 54°09' E 012°06'1 0.3
2017-May-17 13:57N 54°08' E 012°06'0 0.0
2017-May-17 13:15N 54°08' E 012°06'0 0.0
2017-May-17 12:54N 54°08' E 012°06'0 0.0
2017-May-17 12:15N 54°08' E 012°06'0 0.0
2017-May-17 10:12N 54°08' E 012°06'0 0.0
2017-May-17 09:57N 54°08' E 012°06'0 0.0
2017-May-17 09:30N 54°08' E 012°06'0 0.0
2017-May-17 07:00N 54°08' E 012°06'0 0.0
2017-May-17 06:30N 54°08' E 012°06'0 0.0
2017-May-17 05:00N 54°08' E 012°06'1 0.5
2017-May-17 02:35N 54°10' E 012°06'1 4.6
2017-May-17 02:18N 54°11' E 012°06'1612.4
2017-May-17 01:01N 54°26' E 012°10'017.3
2017-May-17 01:00N 54°27' E 012°10'816.8
2017-May-17 00:30N 54°35' E 012°14'4516.8
2017-May-16 21:50N 54°56' E 013°23'617.7
2017-May-16 21:28N 54°58' E 013°33'817.8
2017-May-16 21:00N 55°01' E 013°47'917.5
2017-May-16 20:30N 55°04' E 014°01'917.1
2017-May-16 20:00N 55°09' E 014°12'917.3
2017-May-16 19:30N 55°16' E 014°22'917.8
2017-May-16 19:01N 55°23' E 014°32'816.8
2017-May-16 18:30N 55°28' E 014°43'917.0
2017-May-16 18:00N 55°33' E 014°56'917.1
2017-May-16 17:30N 55°37' E 015°09'917.2
2017-May-16 17:00N 55°42' E 015°22'917.4
2017-May-16 16:30N 55°46' E 015°35'917.5
2017-May-16 16:00N 55°51' E 015°48'917.6
2017-May-16 15:30N 55°55' E 016°02'917.6
2017-May-16 15:00N 55°59' E 016°15'917.5
2017-May-16 14:30N 56°04' E 016°29'1716.5
2017-May-16 13:30N 56°16' E 016°49'917.4
2017-May-16 13:00N 56°24' E 016°54'917.3
2017-May-16 12:30N 56°32' E 017°00'917.3
2017-May-16 12:00N 56°40' E 017°06'1217.4
2017-May-16 11:17N 56°52' E 017°14'617.4
2017-May-16 10:57N 56°57' E 017°18'4817.3
2017-May-16 08:12N 57°40' E 017°59'417.5
2017-May-16 07:59N 57°43' E 018°03'  
Track history (hours):
 
Tides and Currents Weather Stations Pressure Air Temp Water Temp Dewpoint Dewpoint Depression Visibility Wind Speed Wind Dir Waves Ship Positions

Finnhawk

Last reported at 2017-May-26 02:56 UTC. Time now 2017-May-26 20:45 UTC.
Position N 59°49' E 022°57'.

Length 163 m; draft 6 m.

Type: Ship. MMSI: 230007000.

Date/timePositionNaut miles runAvg speedWind from/ knotsBaromVisibWave heightAir tempDewpointWater temp
2017-May-26 02:56N 59°49' E 022°57'1 1.4
2017-May-26 02:29N 59°49' E 022°57'715.4
2017-May-26 02:01N 59°43' E 023°05'815.7
2017-May-26 01:30N 59°36' E 022°57'1515.5
2017-May-26 00:33N 59°26' E 022°35'116.4
2017-May-26 00:28N 59°25' E 022°33'817.2
2017-May-26 00:00N 59°20' E 022°21'23416.6
2017-May-25 09:56N 56°35' E 017°09'817.7
2017-May-25 09:30N 56°28' E 017°04'917.8
2017-May-25 09:00N 56°20' E 016°58'917.8
2017-May-25 08:30N 56°11' E 016°52'816.8
2017-May-25 08:00N 56°04' E 016°45'917.8
2017-May-25 07:30N 55°60' E 016°31'917.7
2017-May-25 07:00N 55°55' E 016°17'917.6
2017-May-25 06:30N 55°51' E 016°03'917.4
2017-May-25 06:00N 55°47' E 015°50'917.4
2017-May-25 05:30N 55°42' E 015°37'917.3
2017-May-25 05:00N 55°38' E 015°23'917.2
2017-May-25 04:30N 55°33' E 015°10'917.3
2017-May-25 04:00N 55°29' E 014°57'917.3
2017-May-25 03:30N 55°25' E 014°44'917.0
2017-May-25 03:00N 55°19' E 014°33'917.5
2017-May-25 02:30N 55°12' E 014°24'817.1
2017-May-25 02:00N 55°06' E 014°14'816.5
2017-May-25 01:30N 55°00' E 014°03'917.3
2017-May-25 01:01N 54°57' E 013°49'917.4
2017-May-25 00:30N 54°54' E 013°34'917.5
2017-May-25 00:00N 54°52' E 013°20'918.0
2017-May-24 23:30N 54°49' E 013°05'917.9
2017-May-24 23:00N 54°45' E 012°51'917.6
2017-May-24 22:30N 54°42' E 012°37'917.9
2017-May-24 22:00N 54°37' E 012°24'1017.4
2017-May-24 21:26N 54°28' E 012°15'816.7
2017-May-24 20:58N 54°22' E 012°07'1111.9
2017-May-24 20:00N 54°10' E 012°06'2 0.9
2017-May-24 17:29N 54°08' E 012°06'0 0.0
2017-May-24 15:14N 54°08' E 012°06'0 0.0
2017-May-24 14:59N 54°08' E 012°06'0 0.0
2017-May-24 14:26N 54°08' E 012°06'0 0.0
2017-May-24 13:14N 54°08' E 012°06'0 0.0
2017-May-24 12:59N 54°08' E 012°06'0 0.0
2017-May-24 12:14N 54°08' E 012°06'0 0.0
2017-May-24 11:59N 54°08' E 012°06'0 0.0
2017-May-24 09:14N 54°08' E 012°06'0 0.0
2017-May-24 08:59N 54°08' E 012°06'1 0.2
2017-May-24 06:32N 54°09' E 012°06'1 2.7
2017-May-24 06:13N 54°10' E 012°06'3 6.6
2017-May-24 05:46N 54°12' E 012°05'2 7.1
2017-May-24 05:29N 54°14' E 012°02'1 2.8
2017-May-24 05:00N 54°13' E 012°03'7 4.3
2017-May-24 03:18N 54°20' E 012°06'311.7
2017-May-24 03:01N 54°23' E 012°09'4 8.7
2017-May-24 02:31N 54°27' E 012°11'713.8
2017-May-24 02:00N 54°34' E 012°14'4615.4
2017-May-23 23:00N 54°56' E 013°24'815.9
2017-May-23 22:29N 54°59' E 013°37'815.9
2017-May-23 22:00N 55°02' E 013°50'815.8
2017-May-23 21:30N 55°05' E 014°03'815.7
2017-May-23 21:00N 55°11' E 014°11'816.0
2017-May-23 20:30N 55°16' E 014°21'816.4
2017-May-23 20:00N 55°23' E 014°30'816.0
2017-May-23 19:30N 55°28' E 014°40'816.1
2017-May-23 19:00N 55°33' E 014°52'815.8
2017-May-23 18:30N 55°37' E 015°04'816.1
2017-May-23 18:00N 55°41' E 015°16'816.3
2017-May-23 17:30N 55°45' E 015°29'816.2
2017-May-23 17:00N 55°48' E 015°42'816.4
2017-May-23 16:30N 55°53' E 015°54'816.4
2017-May-23 16:00N 55°57' E 016°07'816.2
2017-May-23 15:30N 56°01' E 016°19'816.2
2017-May-23 15:00N 56°05' E 016°32'1615.9
2017-May-23 14:00N 56°17' E 016°50'816.7
2017-May-23 13:30N 56°25' E 016°55'26416.3
2017-May-22 21:17N 59°34' E 022°44'516.8
2017-May-22 21:00N 59°37' E 022°51'816.5
2017-May-22 20:30N 59°42' E 023°04'815.2
2017-May-22 20:00N 59°49' E 022°57'1 0.8
2017-May-22 19:16N 59°49' E 022°57'0 0.0
2017-May-22 18:46N 59°49' E 022°57'0 0.0
2017-May-22 18:28N 59°49' E 022°57'0 0.0
2017-May-22 16:34N 59°49' E 022°57'0 0.0
2017-May-22 16:28N 59°49' E 022°57'0 0.0
2017-May-22 13:52N 59°49' E 022°57'0 0.0
2017-May-22 13:22N 59°49' E 022°57'0 0.0
2017-May-22 12:58N 59°49' E 022°57'0 0.0
2017-May-22 12:28N 59°49' E 022°57'0 0.0
2017-May-22 11:58N 59°49' E 022°57'0 0.0
2017-May-22 11:16N 59°49' E 022°57'0 0.0
2017-May-22 10:52N 59°49' E 022°57'0 0.0
2017-May-22 10:28N 59°49' E 022°57'0 0.0
2017-May-22 09:34N 59°49' E 022°57'0 0.0
2017-May-22 09:28N 59°49' E 022°57'0 0.0
2017-May-22 08:40N 59°49' E 022°57'0 0.0
2017-May-22 07:52N 59°49' E 022°57'0 0.0
2017-May-22 07:28N 59°49' E 022°57'0 0.0
2017-May-22 04:28N 59°49' E 022°57'0 0.0
2017-May-22 03:52N 59°49' E 022°57'0 0.0
2017-May-22 03:22N 59°49' E 022°57'0 0.0
2017-May-22 02:58N 59°49' E 022°57'1 1.1
2017-May-22 02:30N 59°49' E 022°56'815.8
2017-May-22 02:00N 59°42' E 023°05'817.2
2017-May-22 01:30N 59°35' E 022°56'25917.7
2017-May-21 10:54N 56°32' E 017°09'918.7
2017-May-21 10:26N 56°24' E 017°04'818.5
2017-May-21 10:00N 56°17' E 016°58'918.5
2017-May-21 09:30N 56°08' E 016°52'918.0
2017-May-21 09:00N 56°02' E 016°40'918.6
2017-May-21 08:30N 55°57' E 016°26'918.8
2017-May-21 08:00N 55°52' E 016°11'1019.4
2017-May-21 07:30N 55°48' E 015°56'1019.8
2017-May-21 07:00N 55°43' E 015°41'1019.6
2017-May-21 06:30N 55°38' E 015°26'1019.8
2017-May-21 06:00N 55°33' E 015°11'1020.1
2017-May-21 05:30N 55°29' E 014°54'1019.9
2017-May-21 05:00N 55°24' E 014°39'1019.8
2017-May-21 04:30N 55°16' E 014°28'1019.7
2017-May-21 04:00N 55°08' E 014°17'1019.6
2017-May-21 03:30N 55°01' E 014°06'1020.2
2017-May-21 02:59N 54°58' E 013°49'1119.7
2017-May-21 02:26N 54°54' E 013°30'819.8
2017-May-21 02:00N 54°52' E 013°16'1019.8
2017-May-21 01:30N 54°49' E 013°00'1019.2
2017-May-21 01:00N 54°45' E 012°45'43 9.8
2017-May-20 20:36N 54°09' E 012°06'0 0.0
2017-May-20 19:06N 54°09' E 012°06'0 0.0
2017-May-20 17:21N 54°09' E 012°06'0 0.0
2017-May-20 17:00N 54°09' E 012°06'0 0.0
2017-May-20 16:27N 54°09' E 012°06'6 2.1
2017-May-20 13:38N 54°14' E 012°03'313.1
2017-May-20 13:25N 54°17' E 012°01'718.1
2017-May-20 13:00N 54°23' E 012°07'917.0
2017-May-20 12:31N 54°31' E 012°13'5917.7
2017-May-20 09:11N 55°00' E 013°42'318.4
2017-May-20 09:00N 55°02' E 013°47'1018.3
2017-May-20 08:26N 55°05' E 014°04'717.1
2017-May-20 08:00N 55°11' E 014°13'917.3
2017-May-20 07:31N 55°17' E 014°23'917.9
2017-May-20 07:00N 55°24' E 014°34'918.3
2017-May-20 06:30N 55°30' E 014°46'918.5
2017-May-20 06:00N 55°34' E 014°60'918.3
2017-May-20 05:30N 55°39' E 015°14'918.7
2017-May-20 05:00N 55°44' E 015°28'919.0
2017-May-20 04:30N 55°49' E 015°42'918.9
2017-May-20 04:00N 55°53' E 015°57'1019.1
2017-May-20 03:31N 55°58' E 016°11'1019.0
2017-May-20 03:00N 56°03' E 016°27'1019.0
2017-May-20 02:30N 56°08' E 016°41'918.3
2017-May-20 02:00N 56°16' E 016°49'918.9
2017-May-20 01:30N 56°25' E 016°55'1019.1
2017-May-20 01:00N 56°33' E 017°01'26718.7
2017-May-19 10:46N 59°41' E 023°00'417.1
2017-May-19 10:30N 59°45' E 023°02'510.2
2017-May-19 10:00N 59°49' E 022°57'0 0.0
2017-May-19 04:26N 59°49' E 022°57'0 0.0
2017-May-19 03:59N 59°49' E 022°57'0 0.0
2017-May-19 02:39N 59°49' E 022°57'1 1.6
2017-May-19 02:19N 59°49' E 022°56'515.1
2017-May-19 02:01N 59°45' E 023°02'612.7
2017-May-19 01:30N 59°39' E 023°02'714.7
2017-May-19 01:00N 59°32' E 022°55'19016.4
2017-May-18 13:24N 57°38' E 018°02'1016.7
2017-May-18 12:49N 57°30' E 017°52'2216.6
2017-May-18 11:29N 57°10' E 017°35'1216.6
2017-May-18 10:44N 56°58' E 017°27'416.6
2017-May-18 10:30N 56°55' E 017°25'816.7
2017-May-18 10:00N 56°47' E 017°19'816.8
2017-May-18 09:30N 56°39' E 017°14'816.9
2017-May-18 09:01N 56°31' E 017°09'817.0
2017-May-18 08:30N 56°24' E 017°02'816.8
2017-May-18 08:00N 56°16' E 016°57'817.0
2017-May-18 07:30N 56°08' E 016°51'816.5
2017-May-18 07:00N 56°02' E 016°41'816.8
2017-May-18 06:30N 55°58' E 016°28'917.0
2017-May-18 06:00N 55°53' E 016°15'816.8
2017-May-18 05:31N 55°49' E 016°02'816.7
2017-May-18 05:00N 55°45' E 015°49'816.7
2017-May-18 04:31N 55°41' E 015°36'816.6
2017-May-18 04:00N 55°37' E 015°24'816.8
2017-May-18 03:31N 55°33' E 015°10'917.0
2017-May-18 03:01N 55°29' E 014°57'816.6
2017-May-18 02:30N 55°25' E 014°44'816.4
2017-May-18 02:01N 55°20' E 014°33'816.7
2017-May-18 01:30N 55°13' E 014°24'816.8
2017-May-18 01:01N 55°07' E 014°15'816.5
2017-May-18 00:31N 55°01' E 014°05'816.7
2017-May-18 00:00N 54°58' E 013°51'816.6
2017-May-17 23:30N 54°55' E 013°37'816.8
2017-May-17 23:00N 54°53' E 013°24'916.6
2017-May-17 22:29N 54°50' E 013°09'2216.6
2017-May-17 21:11N 54°42' E 012°35'3315.4
2017-May-17 19:02N 54°14' E 012°05'210.8
2017-May-17 18:53N 54°12' E 012°05'3 7.7
2017-May-17 18:30N 54°09' E 012°06'1 0.3
2017-May-17 13:57N 54°08' E 012°06'0 0.0
2017-May-17 13:15N 54°08' E 012°06'0 0.0
2017-May-17 12:54N 54°08' E 012°06'0 0.0
2017-May-17 12:15N 54°08' E 012°06'0 0.0
2017-May-17 10:12N 54°08' E 012°06'0 0.0
2017-May-17 09:57N 54°08' E 012°06'0 0.0
2017-May-17 09:30N 54°08' E 012°06'0 0.0
2017-May-17 07:00N 54°08' E 012°06'0 0.0
2017-May-17 06:30N 54°08' E 012°06'0 0.0
2017-May-17 05:00N 54°08' E 012°06'1 0.5
2017-May-17 02:35N 54°10' E 012°06'1 4.6
2017-May-17 02:18N 54°11' E 012°06'1612.4
2017-May-17 01:01N 54°26' E 012°10'017.3
2017-May-17 01:00N 54°27' E 012°10'816.8
2017-May-17 00:30N 54°35' E 012°14'4516.8
2017-May-16 21:50N 54°56' E 013°23'617.7
2017-May-16 21:28N 54°58' E 013°33'817.8
2017-May-16 21:00N 55°01' E 013°47'917.5
2017-May-16 20:30N 55°04' E 014°01'917.1
2017-May-16 20:00N 55°09' E 014°12'917.3
2017-May-16 19:30N 55°16' E 014°22'917.8
2017-May-16 19:01N 55°23' E 014°32'816.8
2017-May-16 18:30N 55°28' E 014°43'917.0
2017-May-16 18:00N 55°33' E 014°56'917.1
2017-May-16 17:30N 55°37' E 015°09'917.2
2017-May-16 17:00N 55°42' E 015°22'917.4
2017-May-16 16:30N 55°46' E 015°35'917.5
2017-May-16 16:00N 55°51' E 015°48'917.6
2017-May-16 15:30N 55°55' E 016°02'917.6
2017-May-16 15:00N 55°59' E 016°15'917.5
2017-May-16 14:30N 56°04' E 016°29'1716.5
2017-May-16 13:30N 56°16' E 016°49'917.4
2017-May-16 13:00N 56°24' E 016°54'917.3
2017-May-16 12:30N 56°32' E 017°00'917.3
2017-May-16 12:00N 56°40' E 017°06'1217.4
2017-May-16 11:17N 56°52' E 017°14'617.4
2017-May-16 10:57N 56°57' E 017°18'4817.3
2017-May-16 08:12N 57°40' E 017°59'417.5
2017-May-16 07:59N 57°43' E 018°03'  

Dump ship's entire track history